Time;durP1;ratioP1;P1;durP2;ratioP2;P2;SDS_P1;SDS_P2;PMS_P1;PMS_P2;Temp;Humidity;BMP_temperature;BMP_pressure;BME280_temperature;BME280_humidity;BME280_pressure;Samples;Min_cycle;Max_cycle;Signal;HPM_P1;HPM_P2
2023/11/27 00:00:33;;;;;;;;;;;;;;;-4.83;88.16;97439.41;4995268;28;20001;-76
2023/11/27 00:02:59;;;;;;;;;;;;;;;-4.79;88.38;97442.41;4995793;28;20368;-74
2023/11/27 00:05:25;;;;;;;;;;;;;;;-4.79;88.28;97437.06;4996754;28;20034;-76
2023/11/27 00:07:51;;;;;;;;;;;;;;;-4.75;88.16;97428.38;4996351;28;20563;-76
2023/11/27 00:10:16;;;;;;;;;;;;;;;-4.72;88.39;97424.44;4997753;28;19925;-76
2023/11/27 00:12:43;;;;;;;;;;;;;;;-4.74;88.15;97414.00;4977720;28;20131;-75
2023/11/27 00:15:11;;;;;;;;;;;;;;;-4.74;88.00;97403.31;4981862;28;20335;-75
2023/11/27 00:17:37;;;;;;;;;;;;;;;-4.74;88.17;97410.53;4995215;28;19929;-75
2023/11/27 00:20:03;;;;;;;;;;;;;;;-4.78;87.96;97382.69;4997776;28;20009;-75
2023/11/27 00:22:29;;;;;;;;;;;;;;;-4.82;88.06;97358.38;4999373;28;19951;-75
2023/11/27 00:24:55;;;;;;;;;;;;;;;-4.90;88.23;97356.88;5000924;28;19952;-78
2023/11/27 00:27:22;;;;;;;;;;;;;;;-4.90;88.54;97335.53;5001882;28;19925;-77
2023/11/27 00:29:48;;;;;;;;;;;;;;;-4.88;88.61;97338.78;4984216;28;19978;-76
2023/11/27 00:32:16;;;;;;;;;;;;;;;-4.92;88.49;97339.47;5000323;28;19944;-75
2023/11/27 00:34:41;;;;;;;;;;;;;;;-4.92;88.98;97326.16;5001350;28;19975;-75
2023/11/27 00:37:08;;;;;;;;;;;;;;;-4.95;88.95;97315.97;4982332;28;19944;-76
2023/11/27 00:39:34;;;;;;;;;;;;;;;-4.92;89.24;97302.94;4982108;28;19935;-75
2023/11/27 00:42:00;;;;;;;;;;;;;;;-4.90;89.08;97289.41;4998583;28;20109;-75
2023/11/27 00:44:26;;;;;;;;;;;;;;;-4.92;89.35;97276.28;4996362;28;19926;-75
2023/11/27 00:46:51;;;;;;;;;;;;;;;-4.93;89.41;97266.69;4981205;28;19926;-75
2023/11/27 00:49:19;;;;;;;;;;;;;;;-4.94;89.57;97273.06;5023923;28;19923;-75
2023/11/27 00:51:45;;;;;;;;;;;;;;;-4.94;89.74;97258.94;5017507;28;20389;-75
2023/11/27 00:54:11;;;;;;;;;;;;;;;-4.95;89.74;97252.00;4996626;28;19925;-76
2023/11/27 00:56:37;;;;;;;;;;;;;;;-5.02;90.14;97236.13;5001940;28;19925;-75
2023/11/27 00:59:03;;;;;;;;;;;;;;;-5.04;90.66;97228.34;4976717;28;20366;-76
2023/11/27 01:01:29;;;;;;;;;;;;;;;-5.03;90.98;97231.84;4997313;28;20012;-75
2023/11/27 01:03:55;;;;;;;;;;;;;;;-5.06;90.82;97222.47;4998273;28;19968;-76
2023/11/27 01:06:23;;;;;;;;;;;;;;;-5.00;91.10;97212.72;4999787;28;19967;-75
2023/11/27 01:08:50;;;;;;;;;;;;;;;-4.96;90.78;97213.06;4998084;28;20539;-75
2023/11/27 01:11:17;;;;;;;;;;;;;;;-4.97;90.80;97209.56;4999084;28;19926;-76
2023/11/27 01:13:43;;;;;;;;;;;;;;;-4.96;90.78;97197.84;4999563;28;20025;-77
2023/11/27 01:16:09;;;;;;;;;;;;;;;-4.91;90.78;97184.63;4998523;28;20769;-77
2023/11/27 01:18:36;;;;;;;;;;;;;;;-4.86;90.48;97176.72;4999324;28;20035;-77
2023/11/27 01:21:02;;;;;;;;;;;;;;;-4.89;89.90;97158.53;4979079;28;19991;-77
2023/11/27 01:23:31;;;;;;;;;;;;;;;-4.89;89.75;97160.38;4997619;28;20199;-76
2023/11/27 01:25:57;;;;;;;;;;;;;;;-4.87;89.45;97136.97;4982397;28;20038;-77
2023/11/27 01:28:23;;;;;;;;;;;;;;;-4.88;88.97;97122.00;4980685;28;19955;-76
2023/11/27 01:30:49;;;;;;;;;;;;;;;-4.92;88.48;97127.00;4998874;28;20405;-77
2023/11/27 01:33:15;;;;;;;;;;;;;;;-4.89;88.47;97117.72;4981861;28;19937;-77
2023/11/27 01:35:41;;;;;;;;;;;;;;;-4.83;88.09;97108.78;4998265;28;19925;-76
2023/11/27 01:38:07;;;;;;;;;;;;;;;-4.80;87.43;97110.97;4998161;28;21293;-75
2023/11/27 01:40:34;;;;;;;;;;;;;;;-4.78;87.22;97114.19;4996844;28;19926;-76
2023/11/27 01:43:00;;;;;;;;;;;;;;;-4.74;87.05;97109.19;4979527;28;19931;-75
2023/11/27 01:45:30;;;;;;;;;;;;;;;-4.71;86.71;97111.38;4997199;28;19926;-75
2023/11/27 01:47:56;;;;;;;;;;;;;;;-4.73;86.39;97100.94;4996255;28;19933;-76
2023/11/27 01:50:22;;;;;;;;;;;;;;;-4.78;86.16;97060.88;4997921;28;19925;-75
2023/11/27 01:52:48;;;;;;;;;;;;;;;-4.81;86.33;97032.03;4997835;28;19932;-75
2023/11/27 01:55:15;;;;;;;;;;;;;;;-4.78;86.44;97055.53;4963866;28;20032;-77
2023/11/27 01:57:42;;;;;;;;;;;;;;;-4.73;86.32;97097.47;4984882;28;19949;-77
2023/11/27 02:00:11;;;;;;;;;;;;;;;-4.68;86.15;97062.06;4996076;28;20261;-77
2023/11/27 02:02:44;;;;;;;;;;;;;;;-4.68;85.91;97049.56;5002026;28;19925;-77
2023/11/27 02:05:10;;;;;;;;;;;;;;;-4.70;86.28;97007.13;5101385;28;19974;-77
2023/11/27 02:07:35;;;;;;;;;;;;;;;-4.75;86.28;97017.72;5101104;28;19963;-77
2023/11/27 02:10:01;;;;;;;;;;;;;;;-4.73;86.78;97044.16;5044845;27;19963;-77
2023/11/27 02:12:28;;;;;;;;;;;;;;;-4.66;86.67;97023.44;4980758;28;20440;-75
2023/11/27 02:14:55;;;;;;;;;;;;;;;-4.63;86.68;97009.63;5068932;28;20026;-75
2023/11/27 02:17:22;;;;;;;;;;;;;;;-4.57;86.91;96999.84;5065452;28;20275;-75
2023/11/27 02:19:48;;;;;;;;;;;;;;;-4.53;87.08;96987.63;5058940;28;20301;-75
2023/11/27 02:22:14;;;;;;;;;;;;;;;-4.51;87.14;96996.19;4999162;28;20027;-76
2023/11/27 02:24:42;;;;;;;;;;;;;;;-4.48;87.31;97008.22;5043733;28;20255;-75
2023/11/27 02:27:08;;;;;;;;;;;;;;;-4.42;87.29;97036.59;5100708;28;19931;-76
2023/11/27 02:29:34;;;;;;;;;;;;;;;-4.45;87.10;97011.22;5016569;28;19929;-77
2023/11/27 02:32:02;;;;;;;;;;;;;;;-4.33;87.02;96991.63;5012264;28;19964;-77
2023/11/27 02:34:27;;;;;;;;;;;;;;;-4.31;87.00;96979.63;4995858;28;20080;-77
2023/11/27 02:36:53;;;;;;;;;;;;;;;-4.30;87.07;96959.91;4998194;28;19929;-77
2023/11/27 02:39:20;;;;;;;;;;;;;;;-4.34;87.15;96932.09;5008916;28;20265;-75
2023/11/27 02:41:47;;;;;;;;;;;;;;;-4.29;87.30;96944.72;5081870;28;19962;-76
2023/11/27 02:44:14;;;;;;;;;;;;;;;-4.27;87.74;96930.06;5101404;28;19970;-76
2023/11/27 02:46:41;;;;;;;;;;;;;;;-4.21;87.93;96940.81;5099881;28;19963;-76
2023/11/27 02:49:07;;;;;;;;;;;;;;;-4.13;87.90;96949.16;5084103;28;19953;-76
2023/11/27 02:51:37;;;;;;;;;;;;;;;-4.12;88.12;96912.63;4996366;28;20617;-76
2023/11/27 02:54:03;;;;;;;;;;;;;;;-4.18;88.20;96894.94;4995486;28;20036;-77
2023/11/27 02:56:29;;;;;;;;;;;;;;;-4.10;88.40;96889.16;4978795;28;20475;-77
2023/11/27 02:58:56;;;;;;;;;;;;;;;-4.05;88.55;96873.19;4997740;28;19925;-77
2023/11/27 03:01:24;;;;;;;;;;;;;;;-4.04;88.67;96866.78;4996926;28;19970;-76
2023/11/27 03:03:50;;;;;;;;;;;;;;;-4.01;88.99;96838.78;4996757;28;19929;-75
2023/11/27 03:06:18;;;;;;;;;;;;;;;-3.95;89.10;96828.97;4980863;28;20558;-76
2023/11/27 03:08:43;;;;;;;;;;;;;;;-3.94;89.24;96875.97;4979854;28;19990;-76
2023/11/27 03:11:10;;;;;;;;;;;;;;;-3.88;89.36;96897.13;4998033;28;20354;-76
2023/11/27 03:13:39;;;;;;;;;;;;;;;-3.75;89.52;96876.38;4994380;28;19962;-76
2023/11/27 03:16:06;;;;;;;;;;;;;;;-3.66;89.66;96855.38;4995502;28;19925;-76
2023/11/27 03:18:32;;;;;;;;;;;;;;;-3.61;89.49;96840.19;4997107;28;19929;-76
2023/11/27 03:20:58;;;;;;;;;;;;;;;-3.58;89.44;96830.84;4998604;28;19933;-75
2023/11/27 03:23:24;;;;;;;;;;;;;;;-3.55;89.66;96825.00;4995875;28;19936;-75
2023/11/27 03:25:50;;;;;;;;;;;;;;;-3.49;90.33;96809.81;4998058;28;20428;-75
2023/11/27 03:28:16;;;;;;;;;;;;;;;-3.46;90.31;96790.59;4980090;28;20325;-75
2023/11/27 03:30:42;;;;;;;;;;;;;;;-3.40;90.37;96741.50;4996844;28;19975;-75
2023/11/27 03:33:09;;;;;;;;;;;;;;;-3.33;90.64;96731.34;4994734;28;19964;-75
2023/11/27 03:35:35;;;;;;;;;;;;;;;-3.28;91.24;96738.59;4997957;28;20384;-76
2023/11/27 03:38:02;;;;;;;;;;;;;;;-3.21;91.41;96802.50;4997653;28;19925;-76
2023/11/27 03:40:28;;;;;;;;;;;;;;;-3.14;91.94;96870.72;4995452;28;19960;-75
2023/11/27 03:42:56;;;;;;;;;;;;;;;-3.03;91.75;96948.34;4963236;28;20025;-75
2023/11/27 03:45:22;;;;;;;;;;;;;;;-2.89;91.58;96922.75;4997244;28;20379;-77
2023/11/27 03:47:48;;;;;;;;;;;;;;;-2.81;91.52;96881.34;4996443;28;19933;-77
2023/11/27 03:50:15;;;;;;;;;;;;;;;-2.76;91.45;96872.53;4994815;28;19949;-77
2023/11/27 03:52:42;;;;;;;;;;;;;;;-2.72;91.50;96858.38;4995140;28;20437;-77
2023/11/27 03:55:09;;;;;;;;;;;;;;;-2.68;91.50;96839.94;4994086;28;19925;-77
2023/11/27 03:57:37;;;;;;;;;;;;;;;-2.61;91.79;96831.69;4998721;28;19978;-77
2023/11/27 04:00:06;;;;;;;;;;;;;;;-2.55;91.78;96819.13;5000926;28;19930;-77
2023/11/27 04:02:38;;;;;;;;;;;;;;;-2.51;91.98;96817.53;4998516;28;19929;-77
2023/11/27 04:05:04;;;;;;;;;;;;;;;-2.48;92.17;96792.91;4999834;28;19998;-77
2023/11/27 04:07:32;;;;;;;;;;;;;;;-2.48;92.28;96792.91;4980209;28;19974;-77
2023/11/27 04:09:58;;;;;;;;;;;;;;;-2.53;92.39;96766.94;4998052;28;19933;-78
2023/11/27 04:12:23;;;;;;;;;;;;;;;-2.41;92.69;96780.09;4999102;28;19929;-77
2023/11/27 04:14:49;;;;;;;;;;;;;;;-2.36;92.79;96840.84;4982034;28;20427;-77
2023/11/27 04:17:15;;;;;;;;;;;;;;;-2.34;92.96;96834.16;4998242;28;20053;-76
2023/11/27 04:19:42;;;;;;;;;;;;;;;-2.30;93.16;96839.81;4963440;28;20232;-76
2023/11/27 04:22:08;;;;;;;;;;;;;;;-2.25;93.35;96820.28;4994147;28;20055;-76
2023/11/27 04:24:36;;;;;;;;;;;;;;;-2.23;93.55;96810.09;4998112;28;20446;-77
2023/11/27 04:27:02;;;;;;;;;;;;;;;-2.21;93.44;96799.94;4994765;28;19934;-76
2023/11/27 04:29:28;;;;;;;;;;;;;;;-2.19;93.55;96781.72;4979920;28;19925;-76
2023/11/27 04:31:54;;;;;;;;;;;;;;;-2.17;93.76;96783.09;4979935;28;19926;-76
2023/11/27 04:34:21;;;;;;;;;;;;;;;-2.12;93.87;96781.47;5000068;28;19981;-76
2023/11/27 04:36:48;;;;;;;;;;;;;;;-2.11;94.04;96770.47;4982181;28;19925;-76
2023/11/27 04:39:14;;;;;;;;;;;;;;;-2.06;93.94;96761.66;5001140;28;20310;-76
2023/11/27 04:41:42;;;;;;;;;;;;;;;-2.05;94.24;96757.91;4999537;28;19964;-76
2023/11/27 04:44:08;;;;;;;;;;;;;;;-2.02;94.48;96755.50;4981341;28;19925;-76
2023/11/27 04:46:34;;;;;;;;;;;;;;;-1.95;94.28;96751.75;4998452;28;19952;-77
2023/11/27 04:49:00;;;;;;;;;;;;;;;-1.91;94.32;96756.31;4999344;28;19925;-76
2023/11/27 04:51:27;;;;;;;;;;;;;;;-1.86;94.39;96755.50;5000964;28;19925;-77
2023/11/27 04:53:53;;;;;;;;;;;;;;;-1.81;94.37;96778.81;4997574;28;19925;-77
2023/11/27 04:56:19;;;;;;;;;;;;;;;-1.78;94.11;96783.63;4981724;28;19926;-77
2023/11/27 04:58:47;;;;;;;;;;;;;;;-1.75;94.30;96781.22;4999412;28;20069;-77
2023/11/27 05:01:13;;;;;;;;;;;;;;;-1.70;94.23;96767.03;5005880;28;19931;-78
2023/11/27 05:03:38;;;;;;;;;;;;;;;-1.67;94.26;96779.88;4992043;28;20019;-78
2023/11/27 05:06:05;;;;;;;;;;;;;;;-1.65;94.24;96769.69;4963990;28;19929;-78
2023/11/27 05:08:31;;;;;;;;;;;;;;;-1.60;94.13;96758.16;4981163;28;19933;-77
2023/11/27 05:11:00;;;;;;;;;;;;;;;-1.58;94.19;96746.09;4994933;28;19925;-77
2023/11/27 05:13:26;;;;;;;;;;;;;;;-1.59;94.19;96747.16;4981776;28;19925;-76
2023/11/27 05:15:54;;;;;;;;;;;;;;;-1.59;94.46;96749.84;4989352;28;19926;-76
2023/11/27 05:18:19;;;;;;;;;;;;;;;-1.58;94.25;96739.94;4983853;28;20288;-76
2023/11/27 05:20:46;;;;;;;;;;;;;;;-1.55;94.57;96731.34;4989217;28;20357;-78
2023/11/27 05:23:12;;;;;;;;;;;;;;;-1.49;95.07;96726.78;4988029;28;19925;-78
2023/11/27 05:25:38;;;;;;;;;;;;;;;-1.44;95.24;96726.75;4983710;28;20428;-77
2023/11/27 05:28:05;;;;;;;;;;;;;;;-1.40;95.56;96737.75;4998475;28;19932;-78
2023/11/27 05:30:31;;;;;;;;;;;;;;;-1.34;95.68;96734.78;4983218;28;19925;-76
2023/11/27 05:32:59;;;;;;;;;;;;;;;-1.29;95.81;96732.09;5000607;28;19925;-78
2023/11/27 05:35:24;;;;;;;;;;;;;;;-1.32;95.65;96731.84;4995914;28;19925;-78
2023/11/27 05:37:50;;;;;;;;;;;;;;;-1.32;96.00;96732.63;4969545;28;19970;-79
2023/11/27 05:40:16;;;;;;;;;;;;;;;-1.28;95.92;96722.19;4990218;28;19925;-77
2023/11/27 05:42:45;;;;;;;;;;;;;;;-1.24;96.05;96701.78;4970153;28;20150;-76
2023/11/27 05:45:11;;;;;;;;;;;;;;;-1.21;96.15;96719.22;4994257;28;19929;-78
2023/11/27 05:47:39;;;;;;;;;;;;;;;-1.18;96.29;96713.28;4993434;28;20441;-77
2023/11/27 05:50:09;;;;;;;;;;;;;;;-1.19;96.45;96692.91;4994482;28;20454;-77
2023/11/27 05:52:36;;;;;;;;;;;;;;;-1.10;96.36;96682.41;5002761;28;19969;-75
2023/11/27 05:55:02;;;;;;;;;;;;;;;-0.96;96.37;96696.84;5104077;28;19924;-76
2023/11/27 05:57:30;;;;;;;;;;;;;;;-0.93;96.60;96704.34;5086153;28;19930;-76
2023/11/27 05:59:56;;;;;;;;;;;;;;;-0.85;96.50;96692.22;5102870;28;19965;-76
2023/11/27 06:02:22;;;;;;;;;;;;;;;-0.80;96.47;96692.19;5016410;28;19926;-75
2023/11/27 06:04:48;;;;;;;;;;;;;;;-0.75;96.48;96692.19;5000966;28;20420;-77
2023/11/27 06:07:15;;;;;;;;;;;;;;;-0.69;96.43;96687.59;4999577;28;19925;-77
2023/11/27 06:09:41;;;;;;;;;;;;;;;-0.62;96.44;96684.59;4995115;28;20150;-77
2023/11/27 06:12:10;;;;;;;;;;;;;;;-0.60;96.61;96683.22;4993582;28;19970;-74
2023/11/27 06:14:36;;;;;;;;;;;;;;;-0.55;96.49;96685.06;4993318;28;19929;-75
2023/11/27 06:17:02;;;;;;;;;;;;;;;-0.50;96.63;96689.63;4993494;28;19936;-75
2023/11/27 06:19:28;;;;;;;;;;;;;;;-0.46;96.58;96687.97;4978788;28;19925;-74
2023/11/27 06:21:53;;;;;;;;;;;;;;;-0.45;96.72;96693.06;4984743;28;19933;-74
2023/11/27 06:24:21;;;;;;;;;;;;;;;-0.41;96.93;96687.13;5003444;28;19926;-75
2023/11/27 06:26:47;;;;;;;;;;;;;;;-0.37;96.94;96691.66;5005662;28;19925;-75
2023/11/27 06:29:13;;;;;;;;;;;;;;;-0.31;97.30;96695.91;5003132;28;19926;-74
2023/11/27 06:31:39;;;;;;;;;;;;;;;-0.23;97.21;96691.81;5003646;28;19926;-73
2023/11/27 06:34:05;;;;;;;;;;;;;;;-0.20;97.19;96691.25;5003559;28;19971;-75
2023/11/27 06:36:32;;;;;;;;;;;;;;;-0.12;97.03;96681.78;5004234;28;19925;-74
2023/11/27 06:39:00;;;;;;;;;;;;;;;-0.06;97.12;96682.56;5003234;28;19932;-75
2023/11/27 06:41:28;;;;;;;;;;;;;;;-0.04;96.78;96689.25;4979821;28;19925;-75
2023/11/27 06:43:54;;;;;;;;;;;;;;;-0.02;97.33;96675.53;4989379;28;19929;-76
2023/11/27 06:46:20;;;;;;;;;;;;;;;0.03;97.47;96682.75;4964846;28;19925;-76
2023/11/27 06:48:46;;;;;;;;;;;;;;;0.04;97.23;96677.09;5008474;28;19925;-74
2023/11/27 06:51:12;;;;;;;;;;;;;;;0.09;97.39;96657.47;5000727;28;19976;-74
2023/11/27 06:53:38;;;;;;;;;;;;;;;0.11;97.47;96658.75;5001607;28;19979;-75
2023/11/27 06:56:05;;;;;;;;;;;;;;;0.18;97.32;96641.50;4985295;28;19926;-75
2023/11/27 06:58:33;;;;;;;;;;;;;;;0.20;97.50;96633.97;4999129;28;20028;-75
2023/11/27 07:00:59;;;;;;;;;;;;;;;0.23;97.33;96647.59;4996400;28;19925;-79
2023/11/27 07:03:25;;;;;;;;;;;;;;;0.27;97.29;96645.97;4992730;28;20023;-78
2023/11/27 07:05:51;;;;;;;;;;;;;;;0.27;97.42;96667.47;4994452;28;19932;-76
2023/11/27 07:08:17;;;;;;;;;;;;;;;0.27;97.36;96655.91;4992449;28;19937;-81
2023/11/27 07:10:43;;;;;;;;;;;;;;;0.26;97.40;96635.50;4992547;28;20186;-76
2023/11/27 07:13:10;;;;;;;;;;;;;;;0.24;97.51;96619.69;4990728;28;19933;-77
2023/11/27 07:15:37;;;;;;;;;;;;;;;0.28;97.77;96657.50;4994559;28;20024;-82
2023/11/27 07:18:03;;;;;;;;;;;;;;;0.32;97.56;96641.63;5001596;28;19925;-83
2023/11/27 07:20:29;;;;;;;;;;;;;;;0.31;97.49;96638.13;4970483;28;20403;-83
2023/11/27 07:22:58;;;;;;;;;;;;;;;0.32;97.69;96636.25;5001401;28;19932;-77
2023/11/27 07:25:25;;;;;;;;;;;;;;;0.33;97.64;96641.34;5003175;28;19938;-80
2023/11/27 07:27:51;;;;;;;;;;;;;;;0.30;97.89;96641.91;5001901;28;19926;-80
2023/11/27 07:30:17;;;;;;;;;;;;;;;0.28;98.03;96644.88;4988879;28;19979;-77
2023/11/27 07:32:45;;;;;;;;;;;;;;;0.27;98.06;96639.78;5005454;28;19944;-76
2023/11/27 07:35:11;;;;;;;;;;;;;;;0.27;98.37;96639.78;5004148;28;19925;-76
2023/11/27 07:37:38;;;;;;;;;;;;;;;0.30;98.55;96636.53;4987114;28;20604;-76
2023/11/27 07:40:10;;;;;;;;;;;;;;;0.34;98.42;96634.88;5002479;28;19925;-79
2023/11/27 07:42:36;;;;;;;;;;;;;;;0.32;98.38;96639.75;5000410;28;19941;-79
2023/11/27 07:45:04;;;;;;;;;;;;;;;0.34;98.48;96642.13;5005171;28;19925;-76
2023/11/27 07:47:30;;;;;;;;;;;;;;;0.36;98.67;96626.53;5000854;28;19960;-78
2023/11/27 07:49:59;;;;;;;;;;;;;;;0.35;98.92;96603.41;5001202;28;19960;-75
2023/11/27 07:52:25;;;;;;;;;;;;;;;0.34;98.98;96612.56;5001069;28;19986;-76
2023/11/27 07:54:51;;;;;;;;;;;;;;;0.36;99.07;96613.09;5000209;28;19955;-75
2023/11/27 07:57:17;;;;;;;;;;;;;;;0.38;99.57;96618.97;5018053;28;19925;-76
2023/11/27 07:59:43;;;;;;;;;;;;;;;0.39;99.51;96629.44;5015085;28;20414;-77
2023/11/27 08:02:09;;;;;;;;;;;;;;;0.38;99.83;96627.84;5001579;28;20027;-78
2023/11/27 08:04:35;;;;;;;;;;;;;;;0.35;100.00;96622.22;5000084;28;20396;-76
2023/11/27 08:07:03;;;;;;;;;;;;;;;0.35;100.00;96608.78;5007466;28;19968;-75
2023/11/27 08:09:29;;;;;;;;;;;;;;;0.39;100.00;96626.75;4982711;28;19953;-76
2023/11/27 08:11:54;;;;;;;;;;;;;;;0.43;100.00;96621.63;4992122;28;20030;-76
2023/11/27 08:14:21;;;;;;;;;;;;;;;0.47;99.93;96621.81;5003007;28;19925;-76
2023/11/27 08:16:48;;;;;;;;;;;;;;;0.46;99.93;96615.66;5003860;28;20380;-78
2023/11/27 08:19:16;;;;;;;;;;;;;;;0.46;100.00;96612.97;5003337;28;19933;-77
2023/11/27 08:21:43;;;;;;;;;;;;;;;0.49;99.86;96625.06;5000592;28;19925;-77
2023/11/27 08:24:13;;;;;;;;;;;;;;;0.53;100.00;96615.31;5002279;28;20018;-76
2023/11/27 08:26:39;;;;;;;;;;;;;;;0.53;100.00;96615.31;4987108;28;20461;-76
2023/11/27 08:29:06;;;;;;;;;;;;;;;0.55;100.00;96640.03;5003375;28;19964;-76
2023/11/27 08:31:32;;;;;;;;;;;;;;;0.57;100.00;96621.72;5002827;28;19929;-76
2023/11/27 08:33:58;;;;;;;;;;;;;;;0.56;100.00;96595.91;4994406;28;19970;-76
2023/11/27 08:36:27;;;;;;;;;;;;;;;0.56;100.00;96583.28;5004248;28;19932;-76
2023/11/27 08:38:53;;;;;;;;;;;;;;;0.59;100.00;96556.91;5045872;28;20032;-76
2023/11/27 08:41:21;;;;;;;;;;;;;;;0.57;100.00;96546.44;5090756;28;20409;-76
2023/11/27 08:43:47;;;;;;;;;;;;;;;0.60;100.00;96542.38;5006149;28;20022;-76
2023/11/27 08:46:13;;;;;;;;;;;;;;;0.60;100.00;96545.84;5004579;28;20026;-77
2023/11/27 08:48:39;;;;;;;;;;;;;;;0.63;100.00;96565.97;5001350;28;20493;-77
2023/11/27 08:51:06;;;;;;;;;;;;;;;0.66;100.00;96566.22;4969498;28;20374;-78
2023/11/27 08:53:32;;;;;;;;;;;;;;;0.72;100.00;96571.50;4999294;28;19925;-77
2023/11/27 08:56:00;;;;;;;;;;;;;;;0.77;100.00;96571.44;5005768;28;19932;-75
2023/11/27 08:58:28;;;;;;;;;;;;;;;0.80;100.00;96571.66;5028874;28;19955;-75
2023/11/27 09:00:55;;;;;;;;;;;;;;;0.82;100.00;96547.97;5087080;28;20445;-74
2023/11/27 09:03:21;;;;;;;;;;;;;;;0.84;100.00;96567.31;5002387;28;20032;-76
2023/11/27 09:05:47;;;;;;;;;;;;;;;0.85;100.00;96562.72;4986784;28;19956;-76
2023/11/27 09:08:13;;;;;;;;;;;;;;;0.82;100.00;96577.56;5037597;28;19923;-76
2023/11/27 09:10:40;;;;;;;;;;;;;;;0.85;100.00;96576.97;5101996;28;19930;-76
2023/11/27 09:13:06;;;;;;;;;;;;;;;0.85;100.00;96597.69;5032440;28;20051;-76
2023/11/27 09:15:34;;;;;;;;;;;;;;;0.86;100.00;96599.31;5006343;28;19925;-76
2023/11/27 09:18:00;;;;;;;;;;;;;;;0.86;100.00;96593.91;5004898;28;19925;-77
2023/11/27 09:20:27;;;;;;;;;;;;;;;0.87;100.00;96608.19;4971498;28;20374;-76
2023/11/27 09:22:53;;;;;;;;;;;;;;;0.88;100.00;96637.47;5004515;28;19926;-75
2023/11/27 09:25:19;;;;;;;;;;;;;;;0.87;100.00;96627.81;5000351;28;20031;-75
2023/11/27 09:27:48;;;;;;;;;;;;;;;0.91;100.00;96619.97;5003800;28;20400;-75
2023/11/27 09:30:14;;;;;;;;;;;;;;;0.93;100.00;96604.31;5006938;28;19930;-75
2023/11/27 09:32:42;;;;;;;;;;;;;;;0.94;100.00;96603.22;5003204;28;19925;-75
2023/11/27 09:35:10;;;;;;;;;;;;;;;0.96;100.00;96607.25;4987501;28;19960;-74
2023/11/27 09:37:37;;;;;;;;;;;;;;;1.01;100.00;96592.09;5001928;28;19929;-75
2023/11/27 09:40:05;;;;;;;;;;;;;;;1.07;100.00;96581.00;5003452;28;19932;-76
2023/11/27 09:42:35;;;;;;;;;;;;;;;1.15;100.00;96574.16;4983152;28;20297;-75
2023/11/27 09:45:02;;;;;;;;;;;;;;;1.16;100.00;96574.94;4998670;28;19925;-76
2023/11/27 09:47:30;;;;;;;;;;;;;;;1.18;100.00;96589.69;4999585;28;20316;-76
2023/11/27 09:49:58;;;;;;;;;;;;;;;1.18;100.00;96584.31;5000779;28;19932;-76
2023/11/27 09:52:29;;;;;;;;;;;;;;;1.17;100.00;96592.69;4999984;28;20049;-76
2023/11/27 09:54:59;;;;;;;;;;;;;;;1.17;100.00;96600.75;5002700;28;19929;-77
2023/11/27 09:57:25;;;;;;;;;;;;;;;1.20;100.00;96600.19;5005194;28;19983;-76
2023/11/27 09:59:51;;;;;;;;;;;;;;;1.20;100.00;96587.50;5005133;28;20384;-77
2023/11/27 10:02:17;;;;;;;;;;;;;;;1.19;100.00;96585.13;4986086;28;19986;-75
2023/11/27 10:04:43;;;;;;;;;;;;;;;1.20;100.00;96571.38;5004408;28;20379;-75
2023/11/27 10:07:13;;;;;;;;;;;;;;;1.22;100.00;96574.56;4986051;28;19925;-76
2023/11/27 10:09:39;;;;;;;;;;;;;;;1.21;100.00;96578.34;5004445;28;19925;-76
2023/11/27 10:12:05;;;;;;;;;;;;;;;1.22;100.00;96582.63;5003712;28;20155;-76
2023/11/27 10:14:42;;;;;;;;;;;;;;;1.25;100.00;96573.19;5086828;27;20022;-76
2023/11/27 10:17:11;;;;;;;;;;;;;;;1.25;100.00;96579.38;5081887;28;19929;-76
2023/11/27 10:19:44;;;;;;;;;;;;;;;1.26;100.00;96567.53;5081787;28;19928;-75
2023/11/27 10:22:11;;;;;;;;;;;;;;;1.25;100.00;96567.81;5081725;28;20643;-75
2023/11/27 10:24:37;;;;;;;;;;;;;;;1.24;100.00;96571.59;5082420;28;20310;-75
2023/11/27 10:27:07;;;;;;;;;;;;;;;1.22;100.00;96579.94;5081946;28;20023;-75
2023/11/27 10:29:33;;;;;;;;;;;;;;;1.27;100.00;96569.13;5082161;28;19936;-76
2023/11/27 10:32:02;;;;;;;;;;;;;;;1.32;100.00;96564.75;5081938;28;20018;-76
2023/11/27 10:34:31;;;;;;;;;;;;;;;1.32;100.00;96559.34;5081416;28;20027;-76
2023/11/27 10:37:00;;;;;;;;;;;;;;;1.30;100.00;96558.84;5078858;28;19982;-76
2023/11/27 10:39:31;;;;;;;;;;;;;;;1.24;100.00;96547.38;5045898;28;19929;-74
2023/11/27 10:41:58;;;;;;;;;;;;;;;1.26;100.00;96545.16;5066584;28;20299;-76
2023/11/27 10:44:25;;;;;;;;;;;;;;;1.27;100.00;96538.69;5081057;28;19934;-75
2023/11/27 10:46:52;;;;;;;;;;;;;;;1.29;100.00;96536.50;5080981;28;19940;-77
2023/11/27 10:49:20;;;;;;;;;;;;;;;1.30;100.00;96546.19;5079140;28;19929;-76
2023/11/27 10:51:47;;;;;;;;;;;;;;;1.26;100.00;96540.59;5080606;28;20040;-77
2023/11/27 10:54:14;;;;;;;;;;;;;;;1.25;100.00;96533.63;5081689;28;20092;-77
2023/11/27 10:56:44;;;;;;;;;;;;;;;1.28;100.00;96524.13;5082907;28;19929;-76
2023/11/27 10:59:12;;;;;;;;;;;;;;;1.29;100.00;96530.34;5080479;28;20409;-76
2023/11/27 11:01:41;;;;;;;;;;;;;;;1.26;100.00;96534.41;5060771;28;19928;-75
2023/11/27 11:04:11;;;;;;;;;;;;;;;1.25;100.00;96536.31;5065144;28;19928;-75
2023/11/27 11:06:45;;;;;;;;;;;;;;;1.27;100.00;96527.94;5078606;28;19933;-75
2023/11/27 11:09:12;;;;;;;;;;;;;;;1.30;100.00;96537.31;5082275;28;19934;-75
2023/11/27 11:11:40;;;;;;;;;;;;;;;1.31;100.00;96544.28;5083060;28;19960;-76
2023/11/27 11:14:07;;;;;;;;;;;;;;;1.32;100.00;96546.69;5082805;28;19928;-75
2023/11/27 11:16:39;;;;;;;;;;;;;;;1.36;100.00;96526.16;5080419;28;20178;-76
2023/11/27 11:19:08;;;;;;;;;;;;;;;1.41;100.00;96539.53;5078295;28;19928;-76
2023/11/27 11:21:39;;;;;;;;;;;;;;;1.47;100.00;96531.38;5062751;28;19974;-76
2023/11/27 11:24:12;;;;;;;;;;;;;;;1.51;100.00;96535.88;5078877;28;19968;-76
2023/11/27 11:26:45;;;;;;;;;;;;;;;1.50;100.00;96526.19;5067122;28;19951;-76
2023/11/27 11:29:14;;;;;;;;;;;;;;;1.51;100.00;96522.41;5064771;28;19932;-75
2023/11/27 11:31:43;;;;;;;;;;;;;;;1.57;100.00;96525.03;5056451;28;19970;-76
2023/11/27 11:34:19;;;;;;;;;;;;;;;1.62;100.00;96530.31;5057868;28;19929;-76
2023/11/27 11:36:45;;;;;;;;;;;;;;;1.65;100.00;96513.56;5067667;28;19968;-76
2023/11/27 11:39:19;;;;;;;;;;;;;;;1.67;100.00;96514.06;5068053;28;19932;-76
2023/11/27 11:41:45;;;;;;;;;;;;;;;1.64;100.00;96515.47;5063318;28;19928;-76
2023/11/27 11:44:16;;;;;;;;;;;;;;;1.63;100.00;96526.53;5063707;28;20322;-76
2023/11/27 11:46:42;;;;;;;;;;;;;;;1.60;100.00;96527.91;5065228;28;19928;-75
2023/11/27 11:49:10;;;;;;;;;;;;;;;1.57;100.00;96527.72;5048535;28;20319;-75
2023/11/27 11:51:36;;;;;;;;;;;;;;;1.64;100.00;96534.31;5065592;28;20888;-76
2023/11/27 11:54:04;;;;;;;;;;;;;;;1.67;100.00;96530.22;5063547;28;19929;-75
2023/11/27 11:56:31;;;;;;;;;;;;;;;1.70;100.00;96535.00;5067651;28;19950;-76
2023/11/27 11:59:09;;;;;;;;;;;;;;;1.70;99.93;96535.00;5065096;28;19951;-76
2023/11/27 12:01:40;;;;;;;;;;;;;;;1.67;99.51;96532.91;5062853;28;19928;-76
2023/11/27 12:04:08;;;;;;;;;;;;;;;1.64;99.01;96520.84;5064731;28;19936;-76
2023/11/27 12:06:34;;;;;;;;;;;;;;;1.64;99.15;96533.50;5066846;28;19928;-76
2023/11/27 12:09:02;;;;;;;;;;;;;;;1.63;98.86;96529.22;5068769;28;19956;-77
2023/11/27 12:11:31;;;;;;;;;;;;;;;1.60;98.67;96536.00;5064351;28;20433;-77
2023/11/27 12:13:57;;;;;;;;;;;;;;;1.59;98.86;96537.09;5069017;28;19929;-78
2023/11/27 12:16:23;;;;;;;;;;;;;;;1.58;98.96;96537.41;5066281;28;20344;-77
2023/11/27 12:18:50;;;;;;;;;;;;;;;1.55;98.74;96544.94;5064838;28;20311;-77
2023/11/27 12:21:17;;;;;;;;;;;;;;;1.55;98.58;96547.66;5066919;28;20486;-79
2023/11/27 12:23:47;;;;;;;;;;;;;;;1.53;98.60;96546.34;5066053;28;19928;-77
2023/11/27 12:26:22;;;;;;;;;;;;;;;1.53;98.45;96532.91;5065719;28;19928;-77
2023/11/27 12:28:50;;;;;;;;;;;;;;;1.52;98.26;96542.84;5050214;28;20032;-78
2023/11/27 12:31:16;;;;;;;;;;;;;;;1.51;98.18;96543.16;5063823;28;20399;-78
2023/11/27 12:33:44;;;;;;;;;;;;;;;1.49;98.00;96540.75;5064109;28;19928;-78
2023/11/27 12:36:10;;;;;;;;;;;;;;;1.47;97.52;96551.03;5062788;28;19928;-78
2023/11/27 12:38:36;;;;;;;;;;;;;;;1.43;97.32;96541.94;5063186;28;19997;-78
2023/11/27 12:41:05;;;;;;;;;;;;;;;1.40;97.00;96537.94;5050303;28;19982;-78
2023/11/27 12:43:34;;;;;;;;;;;;;;;1.40;97.23;96555.97;5066675;28;19929;-79
2023/11/27 12:46:04;;;;;;;;;;;;;;;1.37;96.96;96554.69;5065164;28;19967;-78